26 de septiembre de 2022

Hora Código Tiempo Temp. Visibilidad Cielo nuboso Viento METAR/SPECI
15:00
V
18 °C 10 km+ 3.800 ft 300° 300° 17 kt METAR LFCK 261300Z AUTO 30017KT 9999 BKN038 BKN048 OVC170 18/08 Q1014 NOSIG
14:30
V
18 °C 10 km+ 3.300 ft 310° 310° 14 kt METAR LFCK 261230Z AUTO 31014KT 270V350 9999 BKN033 BKN040 18/10 Q1014 NOSIG
14:00
V
17 °C 10 km+ 3.000 ft 320° 320° 14 kt METAR LFCK 261200Z AUTO 32014KT 9999 BKN030 BKN039 17/10 Q1015 NOSIG
13:30
M
17 °C 10 km+ 2.700 ft 320° 320° 10 kt METAR LFCK 261130Z AUTO 32010KT 270V350 9999 BKN027 BKN035 OVC041 17/10 Q1015 NOSIG
13:00
M
16 °C 10 km+ 2.300 ft 320° 320° 9 kt METAR LFCK 261100Z AUTO 32009KT 290V350 9999 BKN023 BKN029 OVC037 16/11 Q1015 NOSIG
12:30
M
15 °C 10 km+ 2.100 ft 330° 330° 7 kt METAR LFCK 261030Z AUTO 33007KT 290V030 9999 BKN021 OVC031 15/11 Q1016 NOSIG
12:00
M
15 °C 10 km+ 1.600 ft 310° 310° 8 kt METAR LFCK 261000Z AUTO 31008KT 270V340 9999 // BKN016 BKN024 15/10 Q1016
11:30
M
13 °C 10 km+ 1.200 ft 330° 330° 5 kt METAR LFCK 260930Z AUTO 33005KT 280V360 9999 BKN012 OVC024 13/11 Q1016 BECMG BKN030
11:00
I
12 °C 10 km+ 900 ft 320° 320° 4 kt METAR LFCK 260900Z AUTO 32004KT 290V350 9999 OVC009 12/10 Q1016 BECMG BKN030
10:30
M
12 °C 10 km+ 1.000 ft 290° 290° 5 kt METAR LFCK 260830Z AUTO 29005KT 9999 OVC010 12/10 Q1016 BECMG NSC
10:00
M
11 °C 10 km+ 1.300 ft 320° 320° 4 kt METAR LFCK 260800Z AUTO 32004KT 290V350 9999 OVC013 11/10 Q1016 NOSIG
09:30
M
10 °C 10 km+ 1.200 ft Var Var 2 kt METAR LFCK 260730Z AUTO VRB02KT 9999 OVC012 10/09 Q1016 NOSIG
09:00
M
9 °C 10 km+ 1.400 ft Var Var 3 kt METAR LFCK 260700Z AUTO VRB03KT 9999 OVC014 09/08 Q1016 NOSIG
08:30
M
9 °C 10 km+ 1.600 ft 340° 340° 3 kt METAR LFCK 260630Z AUTO 34003KT 300V360 9999 OVC016 09/08 Q1015 TEMPO BKN012 BKN030
08:00
M
7 °C 10 km+ 1.500 ft Var Var 3 kt METAR LFCK 260600Z AUTO VRB03KT 9999 BKN015 07/06 Q1015 TEMPO BKN012 BKN030
07:30
V
7 °C 10 km+ - Var 000° 0 kt METAR LFCK 260530Z AUTO 00000KT CAVOK 07/06 Q1015 TEMPO BKN012 BKN030
07:00
V
7 °C 10 km+ - 230° 230° 2 kt METAR LFCK 260500Z AUTO 23002KT CAVOK 07/07 Q1015
06:30
V
7 °C 10 km+ - Var 000° 0 kt METAR LFCK 260430Z AUTO 00000KT CAVOK 07/06 Q1015
06:00
V
8 °C 10 km+ - 080° 080° 3 kt METAR LFCK 260400Z AUTO 08003KT CAVOK 08/07 Q1015
05:30
V
8 °C 10 km+ - 140° 140° 2 kt METAR LFCK 260330Z AUTO 14002KT CAVOK 08/07 Q1016
05:00
V
8 °C 10 km+ - Var 000° 0 kt METAR LFCK 260300Z AUTO 00000KT CAVOK 08/08 Q1016
04:30
V
7 °C 10 km+ - Var 000° 0 kt METAR LFCK 260230Z AUTO 00000KT CAVOK 07/06 Q1016
04:00
V
8 °C 10 km+ - Var Var 2 kt METAR LFCK 260200Z AUTO VRB02KT CAVOK 08/08 Q1016
03:30
V
8 °C 10 km+ - Var 000° 0 kt METAR LFCK 260130Z AUTO 00000KT CAVOK 08/07 Q1016
03:00
V
8 °C 10 km+ - Var Var 3 kt METAR LFCK 260100Z AUTO VRB03KT CAVOK 08/07 Q1016
02:30
V
8 °C 10 km+ - 070° 070° 2 kt METAR LFCK 260030Z AUTO 07002KT CAVOK 08/07 Q1017
02:00
V
8 °C 10 km+ - 070° 070° 3 kt METAR LFCK 260000Z AUTO 07003KT CAVOK 08/08 Q1017
01:30
V
9 °C 10 km+ - Var Var 1 kt METAR LFCK 252330Z AUTO VRB01KT 9999 FEW034 09/08 Q1017
01:00
V
9 °C 10 km+ - 160° 160° 2 kt METAR LFCK 252300Z AUTO 16002KT CAVOK 09/08 Q1017
00:30
V
10 °C 10 km+ - Var 000° 0 kt METAR LFCK 252230Z AUTO 00000KT CAVOK 10/08 Q1017
00:00
V
10 °C 10 km+ - 080° 080° 2 kt METAR LFCK 252200Z AUTO 08002KT CAVOK 10/09 Q1017

25 de septiembre de 2022

Hora Código Tiempo Temp. Visibilidad Cielo nuboso Viento METAR/SPECI
23:30
V
10 °C 10 km+ - Var Var 2 kt METAR LFCK 252130Z AUTO VRB02KT CAVOK 10/08 Q1017
23:00
V
10 °C 10 km+ - 060° 060° 1 kt METAR LFCK 252100Z AUTO 06001KT CAVOK 10/09 Q1017
22:30
V
10 °C 10 km+ - 130° 130° 3 kt METAR LFCK 252030Z AUTO 13003KT CAVOK 10/08 Q1017 NOSIG
22:00
V
11 °C 10 km+ - Var 000° 0 kt METAR LFCK 252000Z AUTO 00000KT CAVOK 11/09 Q1017 NOSIG
21:30
V
12 °C 10 km+ - Var 000° 0 kt METAR LFCK 251930Z AUTO 00000KT CAVOK 12/09 Q1017 NOSIG
21:00
V
13 °C 10 km+ - 240° 240° 3 kt METAR LFCK 251900Z AUTO 24003KT CAVOK 13/09 Q1017 NOSIG
20:30
V
14 °C 10 km+ - Var Var 2 kt METAR LFCK 251830Z AUTO VRB02KT CAVOK 14/10 Q1016 NOSIG
20:00
V
15 °C 10 km+ - 330° 330° 5 kt METAR LFCK 251800Z AUTO 33005KT CAVOK 15/10 Q1016 NOSIG
19:30
V
16 °C 10 km+ - 330° 330° 7 kt METAR LFCK 251730Z AUTO 33007KT CAVOK 16/10 Q1016 NOSIG
19:00
V
17 °C 10 km+ - 320° 320° 10 kt METAR LFCK 251700Z AUTO 32010KT CAVOK 17/10 Q1016 NOSIG
18:30
V
17 °C 10 km+ - 310° 310° 10 kt METAR LFCK 251630Z AUTO 31010KT 9999 FEW032 17/09 Q1015 NOSIG
18:00
V
18 °C 10 km+ - 320° 320° 10 kt METAR LFCK 251600Z AUTO 32010KT 290V350 9999 FEW033 18/10 Q1015 NOSIG
17:30
V
18 °C 10 km+ - 320° 320° 11 kt METAR LFCK 251530Z AUTO 32011KT 290V350 9999 FEW036 18/10 Q1015 NOSIG
17:00
V
18 °C 10 km+ - 320° 320° 10 kt METAR LFCK 251500Z AUTO 32010KT 290V360 9999 FEW033 18/10 Q1015 NOSIG
16:30
V
18 °C 10 km+ - 320° 320° 10 kt METAR LFCK 251430Z AUTO 32010KT 290V350 9999 SCT031 18/11 Q1015 NOSIG
16:00
V
18 °C 10 km+ - 300° 300° 9 kt METAR LFCK 251400Z AUTO 30009KT 270V340 9999 FEW032 18/10 Q1016 NOSIG
15:30
M
18 °C 10 km+ 2.900 ft 310° 310° 10 kt METAR LFCK 251330Z AUTO 31010KT 9999 BKN029 18/10 Q1016 NOSIG
15:00
V
17 °C 10 km+ - 320° 320° 10 kt METAR LFCK 251300Z AUTO 32010KT 290V350 9999 FEW028 17/11 Q1016 NOSIG
14:30
V
17 °C 10 km+ - 300° 300° 10 kt METAR LFCK 251230Z AUTO 30010KT 270V330 CAVOK 17/10 Q1016 NOSIG
14:00
V
16 °C 10 km+ 6.200 ft 330° 330° 10 kt METAR LFCK 251200Z AUTO 33010KT 9999 SCT025 SCT045 BKN062 16/10 Q1017 NOSIG
13:30
V
16 °C 10 km+ 6.000 ft 300° 300° 8 kt METAR LFCK 251130Z AUTO 30008KT 270V350 9999 SCT025 SCT032 BKN060 16/10 Q1017 NOSIG
13:00
V
16 °C 10 km+ 5.400 ft 320° 320° 8 kt METAR LFCK 251100Z AUTO 32008KT 280V360 9999 SCT023 SCT044 BKN054 16/10 Q1017 NOSIG
12:30
V
16 °C 10 km+ - 330° 330° 8 kt METAR LFCK 251030Z AUTO 33008KT 300V010 9999 FEW021 SCT046 16/11 Q1017 NOSIG
12:00
V
16 °C 10 km+ 3.300 ft 290° 290° 9 kt METAR LFCK 251000Z AUTO 29009KT 270V330 9999 FEW019 SCT028 BKN033 16/11 Q1017 NOSIG
11:30
M
15 °C 10 km+ 1.500 ft 290° 290° 8 kt METAR LFCK 250930Z AUTO 29008KT 9999 BKN015 BKN021 OVC026 15/11 Q1017 NOSIG
11:00
M
14 °C 10 km+ 2.300 ft 280° 280° 8 kt METAR LFCK 250900Z AUTO 28008KT 9999 SCT015 BKN023 OVC029 14/11 Q1017 NOSIG
10:30
M
13 °C 10 km+ 1.200 ft 290° 290° 10 kt METAR LFCK 250830Z AUTO 29010KT 9999 BKN012 OVC026 13/10 Q1017 BECMG SCT013 BKN020
10:00
M
13 °C 10 km+ 1.100 ft 300° 300° 9 kt METAR LFCK 250800Z AUTO 30009KT 9999 BKN011 OVC027 13/11 Q1016 BECMG SCT013 BKN020
09:30
I
13 °C 10 km+ 800 ft 300° 300° 10 kt METAR LFCK 250730Z AUTO 30010KT 9999 BKN008 OVC012 13/11 Q1016 BECMG SCT013 BKN020
09:00
I
13 °C 10 km+ 700 ft 290° 290° 9 kt METAR LFCK 250700Z AUTO 29009KT 9999 BKN007 OVC012 13/11 Q1016 BECMG SCT013 BKN020
08:30
M
13 °C 10 km+ 1.000 ft 300° 300° 7 kt METAR LFCK 250630Z AUTO 30007KT 9999 BKN010 OVC016 13/11 Q1016 BECMG SCT013 BKN020
08:00
M
13 °C 10 km+ 1.700 ft 290° 290° 8 kt METAR LFCK 250600Z AUTO 29008KT 9999 SCT011 BKN017 BKN030 13/12 Q1016 BECMG BKN008 OVC012
07:30
I
13 °C 10 km+ 900 ft 290° 290° 6 kt METAR LFCK 250530Z AUTO 29006KT 9999 BKN009 OVC015 13/12 Q1016 NOSIG
07:00
I
13 °C 10 km+ 800 ft 280° 280° 7 kt METAR LFCK 250500Z AUTO 28007KT 9999 BKN008 OVC012 13/12 Q1016
06:30
I
13 °C 10 km+ 900 ft 280° 280° 8 kt METAR LFCK 250430Z AUTO 28008KT 9999 BKN009 OVC014 13/11 Q1016
06:00
I
13 °C 10 km+ 900 ft 280° 280° 8 kt METAR LFCK 250400Z AUTO 28008KT 9999 OVC009 13/11 Q1015
05:30
M
13 °C 10 km+ 1.000 ft 280° 280° 8 kt METAR LFCK 250330Z AUTO 28008KT 9999 OVC010/// ///TCU 13/11 Q1015
05:00
I
13 °C 10 km+ 900 ft 270° 270° 8 kt METAR LFCK 250300Z AUTO 27008KT 9999 OVC009 13/12 Q1015
04:30
M
13 °C 10 km+ 1.200 ft 280° 280° 7 kt METAR LFCK 250230Z AUTO 28007KT 9999 OVC012 13/12 Q1016
04:00
M
14 °C 10 km+ 1.300 ft 280° 280° 7 kt METAR LFCK 250200Z AUTO 28007KT 9999 OVC013 14/12 Q1016
03:30
M
14 °C 10 km+ 1.300 ft 290° 290° 8 kt METAR LFCK 250130Z AUTO 29008KT 9999 OVC013 14/11 Q1016
03:00
M
14 °C 10 km+ 1.400 ft 290° 290° 7 kt METAR LFCK 250100Z AUTO 29007KT 9999 OVC014 14/11 Q1016
02:30
M
14 °C 10 km+ 1.500 ft 270° 270° 8 kt METAR LFCK 250030Z AUTO 27008KT 9999 BKN015 BKN038 BKN045 14/11 Q1016
02:00
V
14 °C 10 km+ 4.100 ft 260° 260° 8 kt METAR LFCK 250000Z AUTO 26008KT 9999 SCT016/// OVC041/// ///TCU 14/11 Q1016
01:30
M
14 °C 10 km+ 1.500 ft 270° 270° 7 kt METAR LFCK 242330Z AUTO 27007KT 9999 OVC015 14/12 Q1016
01:00
M
14 °C 10 km+ 1.700 ft 290° 290° 6 kt METAR LFCK 242300Z AUTO 29006KT 9999 BKN017 OVC023 14/12 Q1016
00:30
M
14 °C 10 km+ 1.700 ft 290° 290° 6 kt METAR LFCK 242230Z AUTO 29006KT 260V330 9999 OVC017 14/12 Q1016
00:00
M
14 °C 10 km+ 2.100 ft 270° 270° 9 kt METAR LFCK 242200Z AUTO 27009KT 9999 OVC021 14/12 Q1016

24 de septiembre de 2022

Hora Código Tiempo Temp. Visibilidad Cielo nuboso Viento METAR/SPECI
23:30
M
14 °C 10 km+ 2.400 ft 260° 260° 7 kt METAR LFCK 242130Z AUTO 26007KT 9999 BKN024/// OVC032/// ///TCU 14/12 Q1016
23:00
M
14 °C 10 km+ 2.500 ft 260° 260° 8 kt METAR LFCK 242100Z AUTO 26008KT 9999 OVC025/// ///TCU 14/12 Q1016 TEMPO 4000 SHRA BECMG SCT013 BKN030
22:30
M
15 °C 10 km+ 2.500 ft 250° 250° 10 kt METAR LFCK 242030Z AUTO 25010KT 9999 FEW015/// BKN025/// BKN038/// ///TCU 15/12 Q1017 TEMPO 4000 SHRA BECMG SCT013 BKN030
22:00
M
15 °C 10 km+ 1.500 ft 280° 280° 4 kt METAR LFCK 242000Z AUTO 28004KT 250V310 9999 BKN015 OVC024 15/13 Q1016 TEMPO 4000 SHRA BKN025TCU
21:30
M
15 °C 10 km+ 2.500 ft 260° 260° 3 kt METAR LFCK 241930Z AUTO 26003KT 220V280 9999 DZ BKN025 BKN072 OVC110 15/12 Q1016 TEMPO 4000 SHRA BKN025TCU
21:00
M
15 °C 10 km+ 2.800 ft 270° 270° 3 kt METAR LFCK 241900Z AUTO 27003KT 9999 BKN028 OVC072 15/12 Q1016 TEMPO 4000 SHRA BKN025TCU
20:30
V
15 °C 10 km+ - 260° 260° 5 kt METAR LFCK 241830Z AUTO 26005KT 9999 ///TCU 15/13 Q1016 TEMPO 4000 SHRA
20:00
V
15 °C 10 km+ 7.400 ft 280° 280° 6 kt METAR LFCK 241800Z AUTO 28006KT 9999 FEW026/// BKN074/// OVC130/// ///TCU 15/13 Q1016 TEMPO 4000 SHRA
19:30
V
15 °C 10 km+ 3.900 ft 250° 250° 7 kt METAR LFCK 241730Z AUTO 25007KT 9999 -RA SCT025/// BKN039/// BKN046/// ///CB 15/14 Q1015 TEMPO 4000 SHRA
19:00
V
15 °C 10 km+ 6.200 ft 290° 290° 8 kt METAR LFCK 241700Z AUTO 29008KT 9999 -RA FEW026/// SCT052/// OVC062/// ///CB 15/13 Q1015 TEMPO 4000 SHRA
18:30
I
16 °C 3,4 km 2.200 ft 330° 330° 10 kt METAR LFCK 241630Z AUTO 33010KT 3400 R14/1400U +RA BR FEW014/// BKN022/// BKN036/// ///CB 16/14 Q1015 NOSIG
18:00
V
17 °C 10 km+ 7.400 ft 320° 320° 11 kt METAR LFCK 241600Z AUTO 32011KT 9999 FEW031/// SCT048/// BKN074/// ///TCU 17/13 Q1014 TEMPO 4000 SHRA
17:30
V
18 °C 10 km+ 7.000 ft 310° 310° 10 kt METAR LFCK 241530Z AUTO 31010KT 9999 FEW028/// OVC070/// ///TCU 18/12 Q1014 TEMPO 4000 SHRA
17:00
V
19 °C 10 km+ 6.400 ft 300° 300° 10 kt METAR LFCK 241500Z AUTO 30010KT 9999 SCT033/// OVC064/// ///TCU 19/12 Q1014 TEMPO 4000 SHRA
16:30
V
19 °C 10 km+ 4.400 ft 340° 340° 10 kt METAR LFCK 241430Z AUTO 34010KT 9999 SCT037 BKN044 BKN052 19/12 Q1014 TEMPO 4000 SHRA BKN025TCU
16:00
V
20 °C 10 km+ 5.600 ft 310° 310° 6 kt METAR LFCK 241400Z AUTO 31006KT 280V340 9999 SCT037 BKN056 BKN066 20/12 Q1014 TEMPO 4000 SHRA BKN025TCU
Datos más antiguos

Nosotros y terceros seguimos tu comportamiento en Internet en nuestro sitio web con cookies. Si continúas, asumimos que estás de acuerdo con nuestra política de cookies. Más información